Flight Track Log - Related Links

Times and Time Zones

All times are in EDT time to prevent confusion due to time zone crossing. See the DAL1236 flight status page for this flight to view local times or setup timezone preferences in your user account.

Time Position Orientation Groundspeed Altitude Reporting Facility
EDT Latitude Longitude Course Direction KTS MPH feet Rate Location/Type
Sun 07:41:44 PM 30.5008 -87.1958 24° Northeast 153 176 1,300  Level Jacksonville Center
Sun 07:42:27 PM 30.5364 -87.1878 11° North 220 253 2,200 2,135 Climbing Jacksonville Center
Sun 07:43:28 PM 30.5981 -87.1567 23° Northeast 260 299 5,000 2,607 Climbing Jacksonville Center
Sun 07:44:00 PM 30.7701 -87.0266 16° North  Level FlightAware Approximate
Sun 07:44:52 PM 30.6933 -87.1128 22° Northeast 281 323 8,500  Level Jacksonville Center
Sun 07:45:00 PM 30.8753 -86.9860 25° Northeast  Level FlightAware Approximate
Sun 07:45:52 PM 30.7681 -87.0678 27° Northeast 286 329 10,600  Level Jacksonville Center
Sun 07:46:00 PM 30.9755 -86.9303 25° Northeast  Level FlightAware Approximate
Sun 07:46:52 PM 30.8494 -87.0011 35° Northeast 311 358 11,900  Level Jacksonville Center
Sun 07:47:00 PM 31.0768 -86.8769 24° Northeast  Level FlightAware Approximate
Sun 07:47:52 PM 30.9436 -86.9278 34° Northeast 363 418 14,100  Level Jacksonville Center
Sun 07:48:52 PM 31.0464 -86.8447 35° Northeast 393 452 16,800 2,250 Climbing Jacksonville Center
Sun 07:49:52 PM 31.1469 -86.7664 34° Northeast 412 474 18,600 1,800 Climbing Jacksonville Center
Sun 07:50:52 PM 31.2519 -86.6833 34° Northeast 434 499 20,400 1,743 Climbing Jacksonville Center
Sun 07:53:22 PM 31.5225 -86.4628 35° Northeast 470 541 24,700 1,600 Climbing Atlanta Center
Sun 07:54:22 PM 31.6350 -86.3706 35° Northeast 476 548 26,000 1,150 Climbing Atlanta Center
Sun 07:55:22 PM 31.7450 -86.2783 35° Northeast 476 548 27,000 500 Climbing Atlanta Center
Sun 07:56:22 PM 31.8594 -86.1881 34° Northeast 482 555 27,000  Level Atlanta Center
Sun 07:57:22 PM 31.9717 -86.0931 36° Northeast 489 563 27,000  Level Atlanta Center
Sun 07:58:22 PM 32.0711 -86.0119 35° Northeast 489 563 27,000  Level Atlanta Center
Sun 07:59:22 PM 32.1853 -85.9114 37° Northeast 494 568 27,000  Level Atlanta Center
Sun 08:00:22 PM 32.2953 -85.8153 36° Northeast 494 568 27,000  Level Atlanta Center
Sun 08:01:22 PM 32.4200 -85.7047 37° Northeast 496 571 27,000 -600 Level Atlanta Center
Sun 08:02:22 PM 32.5319 -85.6058 37° Northeast 501 577 25,800 -1,300 Descending Atlanta Center
Sun 08:03:22 PM 32.6333 -85.5114 38° Northeast 487 560 24,400 -1,900 Descending Atlanta Center
Sun 08:04:22 PM 32.7367 -85.4242 35° Northeast 466 536 22,000 -2,450 Descending Atlanta Center
Sun 08:05:22 PM 32.8356 -85.3367 37° Northeast 452 520 19,500 -2,500 Descending Atlanta Center
Sun 08:06:22 PM 32.9325 -85.2492 37° Northeast 440 506 17,000 -2,550 Descending Atlanta Center
Sun 08:07:22 PM 33.0272 -85.1686 35° Northeast 435 501 14,400 -1,500 Descending Atlanta Center
Sun 08:08:22 PM 33.1178 -85.0906 36° Northeast 411 473 14,000 -200 Descending Atlanta Center
Sun 08:09:22 PM 33.2061 -85.0022 40° Northeast 411 473 14,000  Level Atlanta Center
Sun 08:10:22 PM 33.2797 -84.9011 49° Northeast 411 473 14,000 -500 Level Atlanta Center
Sun 08:11:22 PM 33.3556 -84.7972 49° Northeast 411 473 13,000 -1,149 Descending Atlanta Center
Sun 08:11:56 PM 33.4000 -84.7333 50° Northeast 400 460 12,200 -674 Descending Atlanta TRACON
Sun 08:12:51 PM 33.4833 -84.6833 27° Northeast 386 444 12,000 -150 Descending Atlanta TRACON
Sun 08:13:56 PM 33.5833 -84.6167 29° Northeast 395 455 11,900  Descending Atlanta TRACON
Sun 08:14:57 PM 33.6333 -84.5167 59° Northeast 328 377 12,000 -248 Climbing Atlanta TRACON
Sun 08:15:57 PM 33.6833 -84.4333 54° Northeast 332 382 11,400 -1,563 Descending Atlanta TRACON
Sun 08:16:56 PM 33.7167 -84.3667 59° Northeast 253 291 8,900 -2,448 Descending Atlanta TRACON
Sun 08:18:02 PM 33.7333 -84.2667 79° East 251 289 6,300 -2,331 Descending Atlanta TRACON
Sun 08:18:57 PM 33.6833 -84.2333 151° Southeast 240 276 4,200 -2,291 Descending Atlanta TRACON

Login

Don't have an account? Register now (free) for customized features, flight alerts, and more!